Time;durP1;ratioP1;P1;durP2;ratioP2;P2;SDS_P1;SDS_P2;PMS_P1;PMS_P2;Temp;Humidity;BMP_temperature;BMP_pressure;BME280_temperature;BME280_humidity;BME280_pressure;Samples;Min_cycle;Max_cycle;Signal;HPM_P1;HPM_P2
2022/07/02 00:01:22;;;;;;;8.77;7.97;;;10.30;99.90;;;;;;5053761;28;20224;-78
2022/07/02 00:03:52;;;;;;;9.13;8.23;;;10.30;99.90;;;;;;5054241;28;20266;-75
2022/07/02 00:06:25;;;;;;;9.67;7.63;;;10.30;99.90;;;;;;5054344;28;20204;-78
2022/07/02 00:08:55;;;;;;;9.97;7.57;;;10.30;99.90;;;;;;5053764;28;20224;-76
2022/07/02 00:11:25;;;;;;;26.07;8.10;;;10.20;99.90;;;;;;5053958;28;20255;-74
2022/07/02 00:13:54;;;;;;;32.47;7.80;;;10.20;99.90;;;;;;5054263;28;20287;-78
2022/07/02 00:16:22;;;;;;;12.93;8.50;;;10.10;99.90;;;;;;5054122;28;20207;-78
2022/07/02 00:18:54;;;;;;;11.27;8.20;;;10.10;99.90;;;;;;5053841;28;20303;-78
2022/07/02 00:21:23;;;;;;;29.70;8.47;;;10.10;99.90;;;;;;5054058;28;20542;-79
2022/07/02 00:23:51;;;;;;;12.37;7.60;;;10.00;99.90;;;;;;5055535;28;20674;-78
2022/07/02 00:26:27;;;;;;;18.33;8.57;;;10.00;99.90;;;;;;5054571;28;20227;-78
2022/07/02 00:29:02;;;;;;;12.67;8.80;;;9.90;99.90;;;;;;5054122;28;20303;-79
2022/07/02 00:31:30;;;;;;;16.40;9.00;;;9.90;99.90;;;;;;5054058;28;20294;-79
2022/07/02 00:33:59;;;;;;;9.90;8.47;;;9.90;99.90;;;;;;5054522;28;20212;-79
2022/07/02 00:36:31;;;;;;;10.40;8.97;;;9.90;99.90;;;;;;5053992;28;20222;-79
2022/07/02 00:39:00;;;;;;;9.73;8.23;;;9.90;99.90;;;;;;5054012;28;20243;-79
2022/07/02 00:41:31;;;;;;;10.13;8.40;;;9.90;99.90;;;;;;5056227;28;20251;-77
2022/07/02 00:44:01;;;;;;;10.73;8.77;;;9.80;99.90;;;;;;5053810;28;20227;-78
2022/07/02 00:46:30;;;;;;;12.00;8.40;;;9.80;99.90;;;;;;5053768;28;20255;-79
2022/07/02 00:49:00;;;;;;;10.20;8.57;;;9.80;99.90;;;;;;5053525;28;20228;-77
2022/07/02 00:51:29;;;;;;;10.90;8.37;;;9.80;99.90;;;;;;5053736;28;20301;-79
2022/07/02 00:53:58;;;;;;;9.90;7.83;;;9.80;99.90;;;;;;5058211;28;20211;-76
2022/07/02 00:56:26;;;;;;;9.23;8.23;;;9.80;99.90;;;;;;5074084;28;20211;-78
2022/07/02 00:58:56;;;;;;;9.90;8.87;;;9.80;99.90;;;;;;5072214;28;20212;-78
2022/07/02 01:01:24;;;;;;;11.20;9.13;;;9.80;99.90;;;;;;5057111;28;20190;-76
2022/07/02 01:03:53;;;;;;;10.40;9.17;;;9.80;99.90;;;;;;5057600;28;20199;-78
2022/07/02 01:06:24;;;;;;;9.93;8.93;;;9.80;99.90;;;;;;5056890;28;20220;-75
2022/07/02 01:11:41;;;;;;;10.23;8.93;;;9.80;99.90;;;;;;5054025;28;20217;-77
2022/07/02 01:14:16;;;;;;;10.10;8.67;;;9.80;99.90;;;;;;5056521;28;20193;-76
2022/07/02 01:16:44;;;;;;;8.83;7.93;;;9.80;99.90;;;;;;5057303;28;20185;-76
2022/07/02 01:19:17;;;;;;;9.97;9.03;;;9.70;99.90;;;;;;5056847;28;20209;-76
2022/07/02 01:22:16;;;;;;;9.93;8.93;;;9.70;99.90;;;;;;5056323;28;20181;-77
2022/07/02 01:24:46;;;;;;;9.70;8.80;;;9.80;99.90;;;;;;5054554;28;20224;-76
2022/07/02 01:27:14;;;;;;;9.17;8.27;;;9.80;99.90;;;;;;5053312;28;20205;-78
2022/07/02 01:29:43;;;;;;;8.70;7.90;;;9.70;99.90;;;;;;5050530;28;20232;-76
2022/07/02 01:32:11;;;;;;;10.63;8.43;;;9.70;99.90;;;;;;5044544;28;20288;-77
2022/07/02 01:34:41;;;;;;;8.83;7.93;;;9.70;99.90;;;;;;5073419;28;20219;-75
2022/07/02 01:37:12;;;;;;;9.10;8.13;;;9.70;99.90;;;;;;5076510;28;20193;-76
2022/07/02 01:39:43;;;;;;;9.47;7.97;;;9.60;99.90;;;;;;5074642;28;20215;-76
2022/07/02 01:42:12;;;;;;;8.80;7.90;;;9.60;99.90;;;;;;5068670;28;20211;-77
2022/07/02 01:44:41;;;;;;;10.10;9.10;;;9.60;99.90;;;;;;5066121;28;20216;-76
2022/07/02 01:47:11;;;;;;;10.77;9.10;;;9.60;99.90;;;;;;5065761;28;20248;-77
2022/07/02 01:49:41;;;;;;;9.97;8.97;;;9.60;99.90;;;;;;5069755;28;20476;-76
2022/07/02 01:52:09;;;;;;;9.30;8.10;;;9.50;99.90;;;;;;5077053;28;20586;-76
2022/07/02 01:54:38;;;;;;;9.47;8.57;;;9.50;99.90;;;;;;5077287;28;20188;-76
2022/07/02 01:57:08;;;;;;;10.27;8.23;;;9.50;99.90;;;;;;5076088;28;20215;-78
2022/07/02 01:59:37;;;;;;;10.60;8.83;;;9.50;99.90;;;;;;5056065;28;20193;-78
2022/07/02 02:02:06;;;;;;;9.97;8.20;;;9.50;99.90;;;;;;5037862;28;20240;-79
2022/07/02 02:04:35;;;;;;;10.93;8.33;;;9.50;99.90;;;;;;5051223;28;20200;-77
2022/07/02 02:07:06;;;;;;;12.00;9.27;;;9.50;99.90;;;;;;5055666;28;20208;-77
2022/07/02 02:09:34;;;;;;;13.20;9.37;;;9.40;99.90;;;;;;5056489;28;20180;-77
2022/07/02 02:12:03;;;;;;;17.13;9.87;;;9.50;99.90;;;;;;5056034;28;20231;-74
2022/07/02 02:14:57;;;;;;;13.67;9.57;;;9.50;99.90;;;;;;5075641;28;20208;-77
2022/07/02 02:17:25;;;;;;;12.43;10.37;;;9.40;99.90;;;;;;5076838;28;20188;-77
2022/07/02 02:19:53;;;;;;;35.87;9.53;;;9.50;99.90;;;;;;5080661;28;20215;-77
2022/07/02 02:22:22;;;;;;;16.80;10.00;;;9.40;99.90;;;;;;5080780;28;20192;-75
2022/07/02 02:24:53;;;;;;;14.57;9.70;;;9.40;99.90;;;;;;5080450;28;20231;-76
2022/07/02 02:27:21;;;;;;;11.87;10.07;;;9.40;99.90;;;;;;5080540;28;20219;-76
2022/07/02 02:29:49;;;;;;;14.73;10.30;;;9.30;99.90;;;;;;5079983;28;20192;-78
2022/07/02 02:32:18;;;;;;;10.73;9.10;;;9.30;99.90;;;;;;5063228;28;20278;-76
2022/07/02 02:34:46;;;;;;;11.40;9.30;;;9.30;99.90;;;;;;5056374;28;20797;-79
2022/07/02 02:37:15;;;;;;;14.20;9.50;;;9.30;99.90;;;;;;5057508;28;20246;-77
2022/07/02 02:39:43;;;;;;;10.93;9.40;;;9.30;99.90;;;;;;5056210;28;20263;-78
2022/07/02 02:42:11;;;;;;;10.40;9.30;;;9.30;99.90;;;;;;5056354;28;20287;-80
2022/07/02 02:44:39;;;;;;;11.23;9.83;;;9.20;99.90;;;;;;5056325;28;20243;-77
2022/07/02 02:47:08;;;;;;;10.80;9.70;;;9.20;99.90;;;;;;5056439;28;20220;-79
2022/07/02 02:49:38;;;;;;;10.40;9.10;;;9.20;99.90;;;;;;5055807;28;20212;-79
2022/07/02 02:52:07;;;;;;;11.27;8.47;;;9.20;99.90;;;;;;5056258;28;20266;-78
2022/07/02 02:54:35;;;;;;;10.37;9.20;;;9.10;99.90;;;;;;5055691;28;20295;-78
2022/07/02 02:57:04;;;;;;;11.17;8.60;;;9.10;99.90;;;;;;5055814;28;20211;-77
2022/07/02 02:59:33;;;;;;;10.87;8.67;;;9.10;99.90;;;;;;5055652;28;20384;-77
2022/07/02 03:02:01;;;;;;;11.03;9.10;;;9.10;99.90;;;;;;5055156;28;20204;-77
2022/07/02 03:04:29;;;;;;;10.00;8.90;;;9.10;99.90;;;;;;5055464;28;20216;-78
2022/07/02 03:06:58;;;;;;;10.93;8.60;;;9.10;99.90;;;;;;5054595;28;20247;-77
2022/07/02 03:09:27;;;;;;;10.03;8.50;;;9.10;99.90;;;;;;5054970;28;20270;-76
2022/07/02 03:11:56;;;;;;;9.53;8.47;;;9.10;99.90;;;;;;5054880;28;20788;-79
2022/07/02 03:14:24;;;;;;;9.87;8.87;;;9.10;99.90;;;;;;5055453;28;20231;-78
2022/07/02 03:16:53;;;;;;;9.93;8.37;;;9.10;99.90;;;;;;5055072;28;20235;-78
2022/07/02 03:19:21;;;;;;;9.97;8.20;;;9.10;99.90;;;;;;5054188;28;20217;-77
2022/07/02 03:21:49;;;;;;;11.73;8.90;;;9.00;99.90;;;;;;5054392;28;20303;-76
2022/07/02 03:24:18;;;;;;;11.57;8.53;;;9.00;99.90;;;;;;5054757;28;20212;-79
2022/07/02 03:26:47;;;;;;;12.30;8.47;;;9.00;99.90;;;;;;5054491;28;20227;-79
2022/07/02 03:29:15;;;;;;;12.70;8.60;;;9.00;99.90;;;;;;5053340;28;20678;-78
2022/07/02 03:31:43;;;;;;;17.80;7.80;;;9.00;99.90;;;;;;5054594;28;20576;-78
2022/07/02 03:34:11;;;;;;;15.37;8.00;;;9.00;99.90;;;;;;5054570;28;20204;-77
2022/07/02 03:36:39;;;;;;;14.60;8.27;;;9.00;99.90;;;;;;5054579;28;20220;-77
2022/07/02 03:39:08;;;;;;;11.60;7.77;;;9.00;99.90;;;;;;5053983;28;20299;-78
2022/07/02 03:41:38;;;;;;;9.00;7.53;;;9.00;99.90;;;;;;5054134;28;20251;-75
2022/07/02 03:44:06;;;;;;;10.27;8.03;;;9.00;99.90;;;;;;5054074;28;20322;-80
2022/07/02 03:46:34;;;;;;;8.73;7.70;;;9.00;99.90;;;;;;5054025;28;20673;-76
2022/07/02 03:49:02;;;;;;;9.37;7.60;;;9.00;99.90;;;;;;5054266;28;20208;-78
2022/07/02 03:51:31;;;;;;;8.83;6.90;;;9.00;99.90;;;;;;5053994;28;20239;-80
2022/07/02 03:53:59;;;;;;;9.03;6.87;;;9.10;99.90;;;;;;5053966;28;20769;-78
2022/07/02 03:56:28;;;;;;;9.50;6.70;;;9.10;99.90;;;;;;5038243;28;20212;-77
2022/07/02 03:58:58;;;;;;;9.93;6.83;;;9.10;99.90;;;;;;5034183;28;20205;-79
2022/07/02 04:01:26;;;;;;;8.23;6.97;;;9.20;99.90;;;;;;5033938;28;20240;-77
2022/07/02 04:03:56;;;;;;;11.37;7.40;;;9.20;99.90;;;;;;5037237;28;20614;-79
2022/07/02 04:06:24;;;;;;;9.67;7.03;;;9.20;99.90;;;;;;5054665;28;20574;-77
2022/07/02 04:08:52;;;;;;;9.90;7.20;;;9.30;99.90;;;;;;5053527;28;20295;-79
2022/07/02 04:11:20;;;;;;;11.57;7.30;;;9.40;99.90;;;;;;5048433;28;20705;-79
2022/07/02 04:13:48;;;;;;;24.10;6.70;;;9.40;99.90;;;;;;5039207;28;20717;-81
2022/07/02 04:16:18;;;;;;;33.43;6.97;;;9.50;99.90;;;;;;5050181;28;20303;-77
2022/07/02 04:18:46;;;;;;;31.73;6.30;;;9.40;99.90;;;;;;5033261;28;20678;-80
2022/07/02 04:21:34;;;;;;;20.13;6.37;;;9.40;99.90;;;;;;5034260;28;20197;-79
2022/07/02 04:24:02;;;;;;;17.53;6.77;;;9.50;99.90;;;;;;5033285;28;20291;-82
2022/07/02 04:26:33;;;;;;;27.87;6.60;;;9.50;99.90;;;;;;5033359;28;20645;-79
2022/07/02 04:29:01;;;;;;;16.77;6.47;;;9.60;99.90;;;;;;5033741;28;20244;-80
2022/07/02 04:31:31;;;;;;;10.57;6.23;;;9.70;99.90;;;;;;5033354;28;20231;-79
2022/07/02 04:33:59;;;;;;;9.00;6.33;;;9.70;99.90;;;;;;5033366;28;20235;-80
2022/07/02 04:36:27;;;;;;;20.63;6.43;;;9.80;99.90;;;;;;5034212;28;20388;-77
2022/07/02 04:38:56;;;;;;;30.07;6.80;;;9.80;99.90;;;;;;5033220;28;20632;-79
2022/07/02 04:41:24;;;;;;;25.47;6.70;;;9.80;99.90;;;;;;5033008;28;20216;-79
2022/07/02 04:43:53;;;;;;;8.37;5.90;;;10.00;99.90;;;;;;5033297;28;20240;-79
2022/07/02 04:46:21;;;;;;;14.57;6.73;;;10.10;99.90;;;;;;5039032;28;20236;-78
2022/07/02 04:48:50;;;;;;;17.97;6.67;;;10.20;99.90;;;;;;5037882;28;20243;-77
2022/07/02 04:51:19;;;;;;;66.27;7.73;;;10.30;99.90;;;;;;5034343;28;20296;-79
2022/07/02 04:53:49;;;;;;;71.43;7.53;;;10.40;99.90;;;;;;5052533;28;20255;-78
2022/07/02 04:56:17;;;;;;;19.83;7.23;;;10.40;99.90;;;;;;5052442;28;20729;-78
2022/07/02 04:58:45;;;;;;;59.97;7.57;;;10.50;99.90;;;;;;5051943;28;20746;-77
2022/07/02 05:01:13;;;;;;;110.73;8.73;;;10.60;99.90;;;;;;5052748;28;20242;-78
2022/07/02 05:03:42;;;;;;;45.43;7.77;;;10.60;99.90;;;;;;5049382;28;20216;-79
2022/07/02 05:06:12;;;;;;;89.13;8.23;;;10.60;99.90;;;;;;5046578;28;20212;-78
2022/07/02 05:08:40;;;;;;;11.23;7.53;;;10.70;99.90;;;;;;5051900;28;20258;-79
2022/07/02 05:11:08;;;;;;;9.03;7.40;;;10.70;99.90;;;;;;5052343;28;20258;-79
2022/07/02 05:13:36;;;;;;;22.73;7.40;;;10.90;99.90;;;;;;5052600;28;20250;-79
2022/07/02 05:16:05;;;;;;;107.40;8.90;;;11.10;99.90;;;;;;5052114;28;20255;-79
2022/07/02 05:18:33;;;;;;;13.90;7.10;;;11.10;99.90;;;;;;5052467;28;20208;-76
2022/07/02 05:21:01;;;;;;;45.80;7.53;;;11.10;99.90;;;;;;5052228;28;20303;-78
2022/07/02 05:23:31;;;;;;;15.37;7.90;;;11.20;99.90;;;;;;5052254;28;20208;-79
2022/07/02 05:25:59;;;;;;;15.43;8.10;;;11.30;99.90;;;;;;5052382;28;20278;-79
2022/07/02 05:28:28;;;;;;;9.57;7.83;;;11.30;99.90;;;;;;5051869;28;20667;-80
2022/07/02 05:30:56;;;;;;;41.93;8.07;;;11.60;99.90;;;;;;5052172;28;20236;-78
2022/07/02 05:33:24;;;;;;;16.93;8.17;;;11.60;99.90;;;;;;5051865;28;20224;-77
2022/07/02 05:35:52;;;;;;;13.90;8.27;;;11.60;99.90;;;;;;5051910;28;20287;-77
2022/07/02 05:38:20;;;;;;;10.27;8.47;;;11.60;99.90;;;;;;5051616;28;20274;-80
2022/07/02 05:40:50;;;;;;;12.43;7.93;;;11.70;99.90;;;;;;5050560;28;20239;-79
2022/07/02 05:43:18;;;;;;;9.23;8.33;;;11.90;99.90;;;;;;5052219;28;20654;-80
2022/07/02 05:45:48;;;;;;;8.80;7.90;;;12.00;99.90;;;;;;5051933;28;20287;-77
2022/07/02 05:48:17;;;;;;;9.93;7.07;;;12.10;99.90;;;;;;5051615;28;20258;-75
2022/07/02 05:50:45;;;;;;;7.30;6.03;;;12.20;99.90;;;;;;5052243;28;20276;-78
2022/07/02 05:53:14;;;;;;;6.90;6.20;;;12.30;99.90;;;;;;5050213;28;20294;-79
2022/07/02 05:55:42;;;;;;;5.20;4.70;;;12.70;99.90;;;;;;5047628;28;20588;-79
2022/07/02 05:58:12;;;;;;;7.00;5.43;;;12.70;99.90;;;;;;5052202;28;20666;-76
2022/07/02 06:00:40;;;;;;;4.83;4.33;;;12.90;99.90;;;;;;5049528;28;20570;-76
2022/07/02 06:03:08;;;;;;;5.23;3.90;;;13.20;99.90;;;;;;5051470;28;20251;-77
2022/07/02 06:08:22;;;;;;;5.13;3.90;;;13.90;99.90;;;;;;5052507;28;20224;-76
2022/07/02 06:10:50;;;;;;;4.37;3.50;;;14.10;99.90;;;;;;5052238;28;20266;-75
2022/07/02 06:13:20;;;;;;;3.63;3.30;;;14.50;99.90;;;;;;5051884;28;20214;-76
2022/07/02 06:15:48;;;;;;;4.30;3.20;;;14.70;99.90;;;;;;5051869;28;20224;-80
2022/07/02 06:18:16;;;;;;;3.37;2.70;;;14.70;99.90;;;;;;5051864;28;20298;-74
2022/07/02 06:20:45;;;;;;;3.43;2.90;;;15.10;99.90;;;;;;5052122;28;20243;-75
2022/07/02 06:23:13;;;;;;;3.37;3.07;;;15.10;99.90;;;;;;5052238;28;20280;-77
2022/07/02 06:25:41;;;;;;;3.80;2.97;;;15.10;99.90;;;;;;5052119;28;20260;-75
2022/07/02 06:28:10;;;;;;;3.17;2.87;;;15.50;99.90;;;;;;5052345;28;20291;-76
2022/07/02 06:30:39;;;;;;;3.90;2.77;;;16.00;99.90;;;;;;5051531;28;20208;-79
2022/07/02 06:33:07;;;;;;;3.33;3.03;;;16.00;99.90;;;;;;5052696;28;20231;-76
2022/07/02 06:35:36;;;;;;;3.63;3.33;;;15.40;99.90;;;;;;5052318;28;20224;-77
2022/07/02 06:38:05;;;;;;;4.33;3.33;;;15.40;99.90;;;;;;5052382;28;20354;-76
2022/07/02 06:40:33;;;;;;;3.70;3.40;;;15.90;99.90;;;;;;5052140;28;20886;-76
2022/07/02 06:43:01;;;;;;;4.47;4.00;;;16.50;99.90;;;;;;5051771;28;20224;-75
2022/07/02 06:45:29;;;;;;;5.00;4.37;;;16.60;99.90;;;;;;5052347;28;20650;-77
2022/07/02 06:47:59;;;;;;;4.63;4.23;;;16.80;99.90;;;;;;5051989;28;20212;-76
2022/07/02 06:50:27;;;;;;;4.43;4.03;;;16.60;99.90;;;;;;5052185;28;20311;-77
2022/07/02 06:53:02;;;;;;;5.13;4.60;;;17.00;99.90;;;;;;5032752;28;20234;-77
2022/07/02 06:55:30;;;;;;;5.50;5.00;;;18.30;99.90;;;;;;5032592;28;20236;-77
2022/07/02 06:57:58;;;;;;;4.93;4.33;;;18.80;99.90;;;;;;5033223;28;20208;-75
2022/07/02 07:00:26;;;;;;;5.20;4.70;;;19.40;99.90;;;;;;5033493;28;20217;-78
2022/07/02 07:02:54;;;;;;;7.13;5.10;;;20.20;99.90;;;;;;5034453;28;20279;-78
2022/07/02 07:05:25;;;;;;;6.17;5.57;;;20.20;99.90;;;;;;5036115;28;20215;-78
2022/07/02 07:07:53;;;;;;;6.73;6.03;;;19.20;99.90;;;;;;5037460;28;20549;-77
2022/07/02 07:10:21;;;;;;;8.43;6.97;;;19.00;99.90;;;;;;5037311;28;20263;-76
2022/07/02 07:12:50;;;;;;;8.23;6.80;;;19.30;99.90;;;;;;5037634;28;20213;-75
2022/07/02 07:15:18;;;;;;;7.50;6.70;;;19.90;99.90;;;;;;5036217;28;20283;-77
2022/07/02 07:17:47;;;;;;;7.07;6.37;;;19.90;99.90;;;;;;5035812;28;20250;-79
2022/07/02 07:20:19;;;;;;;7.33;6.50;;;20.10;99.90;;;;;;5035216;28;20209;-77
2022/07/02 07:22:48;;;;;;;7.00;6.10;;;21.10;99.90;;;;;;5035092;28;20217;-77
2022/07/02 07:25:16;;;;;;;6.13;5.53;;;21.30;99.90;;;;;;5035137;28;20256;-80
2022/07/02 07:27:44;;;;;;;7.20;5.30;;;22.60;99.90;;;;;;5034937;28;20676;-81
2022/07/02 07:30:13;;;;;;;6.70;4.70;;;23.90;99.90;;;;;;5035066;28;20293;-81
2022/07/02 07:32:42;;;;;;;6.73;5.20;;;24.40;99.90;;;;;;5034700;28;20678;-82
2022/07/02 07:35:12;;;;;;;5.93;5.32;;;25.30;99.90;;;;;;5034866;28;20744;-77
2022/07/02 07:37:40;;;;;;;6.15;5.55;;;25.30;99.90;;;;;;5035611;28;20305;-80
2022/07/02 07:40:11;;;;;;;5.20;4.35;;;24.60;99.90;;;;;;5034861;28;20652;-81
2022/07/02 07:42:40;;;;;;;5.13;4.63;;;25.30;99.90;;;;;;5034465;28;20224;-82
2022/07/02 07:45:09;;;;;;;5.38;4.88;;;24.40;99.90;;;;;;5034781;28;20327;-79
2022/07/02 07:47:37;;;;;;;5.87;5.37;;;24.20;99.90;;;;;;5035670;28;20200;-78
2022/07/02 07:50:06;;;;;;;5.90;5.37;;;23.50;99.90;;;;;;5044106;28;20203;-78
2022/07/02 07:52:34;;;;;;;5.33;4.83;;;23.00;99.90;;;;;;5054231;28;20686;-80
2022/07/02 07:55:03;;;;;;;5.10;4.60;;;23.20;99.90;;;;;;5037592;28;20239;-78
2022/07/02 07:57:34;;;;;;;4.60;4.20;;;24.30;99.90;;;;;;5033970;28;20299;-77
2022/07/02 08:00:03;;;;;;;5.07;4.57;;;24.50;99.90;;;;;;5034093;28;20283;-78
2022/07/02 08:02:31;;;;;;;5.20;4.70;;;24.50;99.90;;;;;;5034154;28;20295;-74
2022/07/02 08:05:06;;;;;;;4.40;4.00;;;25.10;99.90;;;;;;5034774;28;20774;-80
2022/07/02 08:07:58;;;;;;;6.38;3.80;;;25.30;99.90;;;;;;5048582;28;20207;-80
2022/07/02 08:10:27;;;;;;;4.57;4.10;;;26.20;99.90;;;;;;5053076;28;20621;-80
2022/07/02 08:12:56;;;;;;;4.35;3.85;;;26.60;99.90;;;;;;5053185;28;20232;-80
2022/07/02 08:15:26;;;;;;;4.57;3.97;;;27.90;98.30;;;;;;5033323;28;20284;-80
2022/07/02 08:18:01;;;;;;;4.40;4.00;;;27.70;96.80;;;;;;5033349;28;20193;-82
2022/07/02 08:20:29;;;;;;;3.60;3.30;;;27.60;96.50;;;;;;5033475;28;20220;-81
2022/07/02 08:22:58;;;;;;;3.75;3.45;;;27.90;97.50;;;;;;5033238;28;20663;-80
2022/07/02 08:25:27;;;;;;;4.00;3.10;;;27.80;96.20;;;;;;5041495;28;20262;-81
2022/07/02 08:27:56;;;;;;;5.93;3.58;;;27.80;94.10;;;;;;5053220;28;20303;-79
2022/07/02 08:30:25;;;;;;;3.58;3.28;;;28.10;93.20;;;;;;5052603;28;20294;-77
2022/07/02 08:32:53;;;;;;;3.15;2.80;;;27.30;93.40;;;;;;5053437;28;20207;-77
2022/07/02 08:35:21;;;;;;;3.78;2.67;;;27.30;93.10;;;;;;5053391;28;20231;-80
2022/07/02 08:37:49;;;;;;;3.85;3.00;;;26.80;94.00;;;;;;5053487;28;20235;-83
2022/07/02 08:40:22;;;;;;;2.97;2.40;;;27.00;95.20;;;;;;5052849;28;20299;-80
2022/07/02 08:42:52;;;;;;;2.38;1.95;;;27.90;95.60;;;;;;5052747;28;20274;-76
2022/07/02 08:45:24;;;;;;;2.13;1.92;;;28.10;91.60;;;;;;5052336;28;20236;-79
2022/07/02 08:47:54;;;;;;;2.10;1.90;;;27.50;91.80;;;;;;5052598;28;20227;-75
2022/07/02 08:50:26;;;;;;;1.85;1.70;;;27.20;91.20;;;;;;5053283;28;20282;-78
2022/07/02 08:52:55;;;;;;;1.75;1.65;;;26.90;92.90;;;;;;5060897;28;20201;-80
2022/07/02 08:55:23;;;;;;;1.60;1.50;;;26.90;93.40;;;;;;5071805;28;20730;-77
2022/07/02 08:57:52;;;;;;;1.65;1.55;;;27.50;89.30;;;;;;5060563;28;20305;-76
2022/07/02 09:00:23;;;;;;;1.60;1.42;;;27.80;89.60;;;;;;5055278;28;20238;-77
2022/07/02 09:02:58;;;;;;;2.53;1.63;;;28.60;87.60;;;;;;5053014;28;20287;-80
2022/07/02 09:05:29;;;;;;;2.17;1.58;;;28.90;84.70;;;;;;5053026;28;20231;-80
2022/07/02 09:07:58;;;;;;;1.50;1.40;;;28.80;85.00;;;;;;5052729;28;20216;-77
2022/07/02 09:10:27;;;;;;;2.05;1.70;;;28.40;84.60;;;;;;5052570;28;20212;-79
2022/07/02 09:12:56;;;;;;;1.73;1.60;;;27.90;86.80;;;;;;5052191;28;20754;-76
2022/07/02 09:15:26;;;;;;;2.08;1.40;;;27.70;87.00;;;;;;5052325;28;20262;-81
2022/07/02 09:17:55;;;;;;;2.17;1.30;;;28.30;90.60;;;;;;5052562;28;20212;-77
2022/07/02 09:20:23;;;;;;;1.75;1.35;;;28.90;85.80;;;;;;5052137;28;20208;-77
2022/07/02 09:22:53;;;;;;;1.55;1.45;;;28.80;82.50;;;;;;5052046;28;20200;-78
2022/07/02 09:25:22;;;;;;;1.20;1.13;;;28.30;83.70;;;;;;5051837;28;20314;-78
2022/07/02 09:27:59;;;;;;;2.83;0.95;;;27.50;81.60;;;;;;5051139;28;20212;-78
2022/07/02 09:30:31;;;;;;;1.20;0.88;;;26.90;88.80;;;;;;5050953;28;20721;-79
2022/07/02 09:35:46;;;;;;;1.20;1.10;;;28.90;77.30;;;;;;5051535;28;20634;-75
2022/07/02 09:38:14;;;;;;;1.55;0.90;;;29.00;79.60;;;;;;5043627;28;20247;-76
2022/07/02 09:40:52;;;;;;;1.33;0.90;;;28.40;79.80;;;;;;5051154;28;20685;-76
2022/07/02 09:43:28;;;;;;;1.80;0.85;;;28.90;79.90;;;;;;5051967;28;20208;-75
2022/07/02 09:46:00;;;;;;;0.70;0.70;;;28.80;86.10;;;;;;5051724;28;20619;-78
2022/07/02 09:48:28;;;;;;;2.40;0.80;;;29.00;79.50;;;;;;5051682;28;20572;-75
2022/07/02 09:51:03;;;;;;;1.08;0.98;;;29.10;79.00;;;;;;5051765;28;20323;-76
2022/07/02 09:53:32;;;;;;;2.17;0.88;;;28.80;79.60;;;;;;5051282;28;20815;-76
2022/07/02 09:56:03;;;;;;;1.33;1.02;;;29.10;79.30;;;;;;5051888;28;20212;-76
2022/07/02 09:58:31;;;;;;;4.97;1.00;;;28.90;77.70;;;;;;5051437;28;20246;-78
2022/07/02 10:01:04;;;;;;;0.75;0.63;;;27.90;77.10;;;;;;5050405;28;20769;-76
2022/07/02 10:03:32;;;;;;;0.73;0.73;;;27.90;80.50;;;;;;5051406;28;20203;-76
2022/07/02 10:06:01;;;;;;;1.77;0.90;;;28.00;80.20;;;;;;5051397;28;20232;-76
2022/07/02 10:08:30;;;;;;;1.98;1.00;;;28.40;81.60;;;;;;5051487;28;20235;-78
2022/07/02 10:10:59;;;;;;;1.10;0.90;;;28.90;83.60;;;;;;5051606;28;20204;-78
2022/07/02 10:13:27;;;;;;;1.20;1.10;;;29.00;85.20;;;;;;5052030;28;20262;-79
2022/07/02 10:16:03;;;;;;;1.15;0.80;;;29.10;76.80;;;;;;5051365;28;20244;-78
2022/07/02 10:18:31;;;;;;;0.52;0.52;;;29.20;78.50;;;;;;5042774;28;20204;-76
2022/07/02 10:21:02;;;;;;;1.40;0.77;;;29.60;72.10;;;;;;5031244;28;20248;-76
2022/07/02 10:23:31;;;;;;;0.70;0.68;;;29.40;75.00;;;;;;5031227;28;20681;-76
2022/07/02 10:25:59;;;;;;;2.05;0.70;;;29.10;72.60;;;;;;5042521;28;20262;-74
2022/07/02 10:28:27;;;;;;;1.15;0.73;;;27.80;74.80;;;;;;5031962;28;20217;-78
2022/07/02 10:30:57;;;;;;;0.82;0.82;;;28.50;75.40;;;;;;5040348;28;20271;-75
2022/07/02 10:33:32;;;;;;;0.85;0.80;;;29.10;75.70;;;;;;5051658;28;20690;-77
2022/07/02 10:36:03;;;;;;;1.05;0.77;;;29.10;74.50;;;;;;5051568;28;20657;-77
2022/07/02 10:38:33;;;;;;;0.73;0.73;;;29.50;70.10;;;;;;5053682;28;20342;-77
2022/07/02 10:41:03;;;;;;;1.77;0.80;;;28.20;74.70;;;;;;5055469;28;20224;-74
2022/07/02 10:43:34;;;;;;;1.55;0.85;;;28.10;76.20;;;;;;5043635;28;20235;-76
2022/07/02 10:46:06;;;;;;;0.75;0.50;;;28.90;71.60;;;;;;5046500;28;20704;-77
2022/07/02 10:48:47;;;;;;;2.20;1.00;;;29.20;70.90;;;;;;5055532;28;20189;-75
2022/07/02 10:51:19;;;;;;;1.25;0.80;;;29.30;71.70;;;;;;5056309;28;20215;-76
2022/07/02 10:53:50;;;;;;;1.75;0.90;;;29.30;70.50;;;;;;5055363;28;20196;-78
2022/07/02 10:56:18;;;;;;;1.25;0.60;;;28.90;71.80;;;;;;5055547;28;20220;-75
2022/07/02 10:58:46;;;;;;;1.23;0.60;;;29.30;70.70;;;;;;5055057;28;20260;-76
2022/07/02 11:01:17;;;;;;;0.80;0.80;;;29.30;68.90;;;;;;5055222;28;20208;-75
2022/07/02 11:03:56;;;;;;;2.92;0.80;;;29.40;67.40;;;;;;5055122;28;20299;-77
2022/07/02 11:06:25;;;;;;;2.00;0.70;;;29.60;71.50;;;;;;5054804;28;20216;-77
2022/07/02 11:08:56;;;;;;;1.35;0.70;;;29.60;61.80;;;;;;5054758;28;20244;-77
2022/07/02 11:11:49;;;;;;;1.15;0.60;;;29.10;65.10;;;;;;5054650;28;20182;-75
2022/07/02 11:14:18;;;;;;;1.20;0.80;;;28.90;66.20;;;;;;5054962;28;20262;-77
2022/07/02 11:16:48;;;;;;;1.00;0.90;;;29.50;68.10;;;;;;5054384;28;20251;-75
2022/07/02 11:19:20;;;;;;;1.58;0.52;;;28.70;65.10;;;;;;5048131;28;20675;-76
2022/07/02 11:21:50;;;;;;;1.75;0.60;;;28.20;64.00;;;;;;5034466;28;20217;-73
2022/07/02 11:24:26;;;;;;;0.85;0.70;;;27.90;66.10;;;;;;5038296;28;20204;-78
2022/07/02 11:26:55;;;;;;;2.65;1.10;;;27.30;66.70;;;;;;5046553;28;20274;-76
2022/07/02 11:29:23;;;;;;;1.23;0.55;;;27.30;70.10;;;;;;5055127;28;20254;-77
2022/07/02 11:31:53;;;;;;;2.83;0.90;;;27.50;69.40;;;;;;5053328;28;20236;-74
2022/07/02 11:34:24;;;;;;;1.15;0.80;;;27.30;68.90;;;;;;5054359;28;20235;-74
2022/07/02 11:36:53;;;;;;;0.88;0.60;;;27.10;71.10;;;;;;5054256;28;20189;-75
2022/07/02 11:39:26;;;;;;;1.70;0.80;;;26.70;71.50;;;;;;5055181;28;20247;-76
2022/07/02 11:41:54;;;;;;;1.35;0.80;;;27.30;73.80;;;;;;5062535;28;20275;-75
2022/07/02 11:44:25;;;;;;;2.00;0.70;;;26.70;69.10;;;;;;5050580;28;20232;-78
2022/07/02 11:46:55;;;;;;;1.67;0.70;;;26.30;70.60;;;;;;5047303;28;20224;-75
2022/07/02 11:49:26;;;;;;;0.50;0.50;;;26.40;74.20;;;;;;5055094;28;20701;-75
2022/07/02 11:51:56;;;;;;;0.77;0.70;;;26.30;75.40;;;;;;5053830;28;20622;-76
2022/07/02 11:54:26;;;;;;;1.87;0.70;;;26.40;72.30;;;;;;5055356;28;20296;-75
2022/07/02 11:56:54;;;;;;;0.50;0.50;;;26.20;75.30;;;;;;5053735;28;20209;-78
2022/07/02 11:59:24;;;;;;;1.77;0.70;;;26.40;72.10;;;;;;5043863;28;20663;-77
2022/07/02 12:01:54;;;;;;;1.50;0.90;;;25.50;73.30;;;;;;5049136;28;20813;-76
2022/07/02 12:04:28;;;;;;;0.60;0.50;;;25.20;74.70;;;;;;5039718;28;20200;-76
2022/07/02 12:06:58;;;;;;;1.63;0.60;;;25.40;74.90;;;;;;5037880;28;20232;-75
2022/07/02 12:09:28;;;;;;;0.67;0.60;;;25.40;69.80;;;;;;5032293;28;20234;-76
2022/07/02 12:12:04;;;;;;;0.60;0.60;;;25.20;73.10;;;;;;5036399;28;20661;-76
2022/07/02 12:14:32;;;;;;;0.60;0.50;;;24.70;75.60;;;;;;5033538;28;20213;-78
2022/07/02 12:17:08;;;;;;;1.87;0.67;;;24.70;72.80;;;;;;5035510;28;20240;-76
2022/07/02 12:19:38;;;;;;;1.60;0.60;;;24.80;72.00;;;;;;5032352;28;20201;-78
2022/07/02 12:22:06;;;;;;;1.10;0.87;;;24.60;69.90;;;;;;5036354;28;20621;-76
2022/07/02 12:24:36;;;;;;;0.70;0.50;;;24.30;70.20;;;;;;5052658;28;20213;-76
2022/07/02 12:27:08;;;;;;;1.47;0.80;;;24.00;71.60;;;;;;5036191;28;20235;-74
2022/07/02 12:29:56;;;;;;;0.73;0.73;;;24.60;75.40;;;;;;5032998;28;20205;-75
2022/07/02 12:32:26;;;;;;;2.10;0.80;;;24.60;71.80;;;;;;5035941;28;20255;-79
2022/07/02 12:34:57;;;;;;;0.87;0.87;;;24.90;74.20;;;;;;5032674;28;20356;-77
2022/07/02 12:37:31;;;;;;;1.37;0.60;;;24.80;73.50;;;;;;5032539;28;20224;-74
2022/07/02 12:40:01;;;;;;;0.73;0.60;;;24.40;72.30;;;;;;5033976;28;20240;-77
2022/07/02 12:42:33;;;;;;;1.03;0.70;;;24.40;73.50;;;;;;5037451;28;20208;-76
2022/07/02 12:45:04;;;;;;;1.33;0.70;;;24.30;75.00;;;;;;5032524;28;20205;-76
2022/07/02 12:47:34;;;;;;;2.63;0.70;;;24.40;75.00;;;;;;5045542;28;20259;-74
2022/07/02 12:50:06;;;;;;;0.70;0.60;;;24.50;74.50;;;;;;5054142;28;20290;-74
2022/07/02 12:52:45;;;;;;;2.50;0.70;;;24.70;79.00;;;;;;5055055;28;20291;-75
2022/07/02 12:55:32;;;;;;;1.73;0.80;;;24.70;71.00;;;;;;5052962;28;20243;-77
2022/07/02 12:58:06;;;;;;;1.37;0.50;;;24.40;74.20;;;;;;5036543;28;20221;-77
2022/07/02 13:00:36;;;;;;;1.23;0.60;;;24.80;74.60;;;;;;5031603;28;20216;-76
2022/07/02 13:03:07;;;;;;;1.43;0.90;;;25.20;76.60;;;;;;5031909;28;20575;-77
2022/07/02 13:05:38;;;;;;;1.60;0.83;;;24.80;74.10;;;;;;5050494;28;20258;-75
2022/07/02 13:08:07;;;;;;;2.33;0.80;;;25.20;77.20;;;;;;5052693;28;20264;-78
2022/07/02 13:10:36;;;;;;;0.90;0.90;;;25.10;73.70;;;;;;5052249;28;20295;-74